sensor_id;sensor_type;location;lat;lon;timestamp;P1;durP1;ratioP1;P2;durP2;ratioP2
72301;SDS011;60235;52.234;5.186;2023-08-08T00:01:21;12.68;;;4.03;;
72301;SDS011;60235;52.234;5.186;2023-08-08T00:03:47;13.75;;;4.28;;
72301;SDS011;60235;52.234;5.186;2023-08-08T00:06:13;20.60;;;4.32;;
72301;SDS011;60235;52.234;5.186;2023-08-08T00:08:39;11.73;;;3.85;;
72301;SDS011;60235;52.234;5.186;2023-08-08T00:11:05;12.90;;;4.00;;
72301;SDS011;60235;52.234;5.186;2023-08-08T00:13:31;18.10;;;4.50;;
72301;SDS011;60235;52.234;5.186;2023-08-08T00:15:57;14.20;;;3.83;;
72301;SDS011;60235;52.234;5.186;2023-08-08T00:18:23;14.52;;;4.07;;
72301;SDS011;60235;52.234;5.186;2023-08-08T00:20:49;21.15;;;4.10;;
72301;SDS011;60235;52.234;5.186;2023-08-08T00:23:15;12.77;;;3.50;;
72301;SDS011;60235;52.234;5.186;2023-08-08T00:25:41;20.15;;;4.22;;
72301;SDS011;60235;52.234;5.186;2023-08-08T00:28:07;17.60;;;3.92;;
72301;SDS011;60235;52.234;5.186;2023-08-08T00:30:33;21.33;;;4.40;;
72301;SDS011;60235;52.234;5.186;2023-08-08T00:32:59;15.20;;;3.90;;
72301;SDS011;60235;52.234;5.186;2023-08-08T00:35:25;17.42;;;3.70;;
72301;SDS011;60235;52.234;5.186;2023-08-08T00:37:51;14.57;;;3.88;;
72301;SDS011;60235;52.234;5.186;2023-08-08T00:40:17;16.40;;;4.35;;
72301;SDS011;60235;52.234;5.186;2023-08-08T00:42:43;11.80;;;3.72;;
72301;SDS011;60235;52.234;5.186;2023-08-08T00:45:09;16.58;;;3.90;;
72301;SDS011;60235;52.234;5.186;2023-08-08T00:47:35;12.20;;;3.85;;
72301;SDS011;60235;52.234;5.186;2023-08-08T00:50:02;17.15;;;4.25;;
72301;SDS011;60235;52.234;5.186;2023-08-08T00:52:28;12.93;;;3.47;;
72301;SDS011;60235;52.234;5.186;2023-08-08T00:54:54;14.95;;;3.60;;
72301;SDS011;60235;52.234;5.186;2023-08-08T00:57:20;13.75;;;3.80;;
72301;SDS011;60235;52.234;5.186;2023-08-08T00:59:46;13.88;;;3.92;;
72301;SDS011;60235;52.234;5.186;2023-08-08T01:02:12;19.73;;;3.67;;
72301;SDS011;60235;52.234;5.186;2023-08-08T01:04:38;17.27;;;4.25;;
72301;SDS011;60235;52.234;5.186;2023-08-08T01:09:39;14.80;;;3.80;;
72301;SDS011;60235;52.234;5.186;2023-08-08T01:12:06;14.18;;;3.38;;
72301;SDS011;60235;52.234;5.186;2023-08-08T01:14:34;13.68;;;3.35;;
72301;SDS011;60235;52.234;5.186;2023-08-08T01:17:00;13.10;;;3.42;;
72301;SDS011;60235;52.234;5.186;2023-08-08T01:19:27;14.02;;;3.72;;
72301;SDS011;60235;52.234;5.186;2023-08-08T01:21:54;18.40;;;3.75;;
72301;SDS011;60235;52.234;5.186;2023-08-08T01:24:21;12.73;;;3.80;;
72301;SDS011;60235;52.234;5.186;2023-08-08T01:26:47;12.35;;;3.35;;
72301;SDS011;60235;52.234;5.186;2023-08-08T01:29:14;12.75;;;3.50;;
72301;SDS011;60235;52.234;5.186;2023-08-08T01:31:40;14.23;;;4.75;;
72301;SDS011;60235;52.234;5.186;2023-08-08T01:34:06;11.75;;;3.72;;
72301;SDS011;60235;52.234;5.186;2023-08-08T01:36:35;13.25;;;3.47;;
72301;SDS011;60235;52.234;5.186;2023-08-08T01:39:04;11.70;;;3.90;;
72301;SDS011;60235;52.234;5.186;2023-08-08T01:41:34;15.82;;;3.92;;
72301;SDS011;60235;52.234;5.186;2023-08-08T01:46:29;14.13;;;3.40;;
72301;SDS011;60235;52.234;5.186;2023-08-08T01:48:57;16.08;;;3.15;;
72301;SDS011;60235;52.234;5.186;2023-08-08T01:51:23;10.55;;;3.08;;
72301;SDS011;60235;52.234;5.186;2023-08-08T01:53:50;10.57;;;3.00;;
72301;SDS011;60235;52.234;5.186;2023-08-08T01:56:16;11.55;;;2.97;;
72301;SDS011;60235;52.234;5.186;2023-08-08T01:58:42;10.70;;;2.92;;
72301;SDS011;60235;52.234;5.186;2023-08-08T02:01:08;12.63;;;2.90;;
72301;SDS011;60235;52.234;5.186;2023-08-08T02:03:34;11.43;;;3.00;;
72301;SDS011;60235;52.234;5.186;2023-08-08T02:06:00;11.18;;;2.65;;
72301;SDS011;60235;52.234;5.186;2023-08-08T02:08:26;9.57;;;2.97;;
72301;SDS011;60235;52.234;5.186;2023-08-08T02:10:52;9.55;;;2.42;;
72301;SDS011;60235;52.234;5.186;2023-08-08T02:13:18;11.18;;;2.88;;
72301;SDS011;60235;52.234;5.186;2023-08-08T02:15:44;9.93;;;3.00;;
72301;SDS011;60235;52.234;5.186;2023-08-08T02:18:10;8.32;;;2.70;;
72301;SDS011;60235;52.234;5.186;2023-08-08T02:20:36;8.93;;;2.45;;
72301;SDS011;60235;52.234;5.186;2023-08-08T02:23:02;9.35;;;2.65;;
72301;SDS011;60235;52.234;5.186;2023-08-08T02:25:28;10.60;;;2.83;;
72301;SDS011;60235;52.234;5.186;2023-08-08T02:27:55;9.25;;;2.63;;
72301;SDS011;60235;52.234;5.186;2023-08-08T02:30:21;9.05;;;2.88;;
72301;SDS011;60235;52.234;5.186;2023-08-08T02:32:47;14.05;;;3.00;;
72301;SDS011;60235;52.234;5.186;2023-08-08T02:35:13;9.50;;;2.70;;
72301;SDS011;60235;52.234;5.186;2023-08-08T02:37:39;10.45;;;2.67;;
72301;SDS011;60235;52.234;5.186;2023-08-08T02:40:06;7.90;;;2.70;;
72301;SDS011;60235;52.234;5.186;2023-08-08T02:42:33;12.13;;;3.00;;
72301;SDS011;60235;52.234;5.186;2023-08-08T02:44:59;7.25;;;2.53;;
72301;SDS011;60235;52.234;5.186;2023-08-08T02:47:25;7.25;;;2.78;;
72301;SDS011;60235;52.234;5.186;2023-08-08T02:49:51;9.57;;;2.78;;
72301;SDS011;60235;52.234;5.186;2023-08-08T02:52:16;9.32;;;2.40;;
72301;SDS011;60235;52.234;5.186;2023-08-08T02:54:42;8.93;;;2.33;;
72301;SDS011;60235;52.234;5.186;2023-08-08T02:57:08;9.32;;;2.75;;
72301;SDS011;60235;52.234;5.186;2023-08-08T02:59:37;7.65;;;2.83;;
72301;SDS011;60235;52.234;5.186;2023-08-08T03:02:04;6.85;;;2.20;;
72301;SDS011;60235;52.234;5.186;2023-08-08T03:04:30;7.10;;;2.42;;
72301;SDS011;60235;52.234;5.186;2023-08-08T03:06:56;7.13;;;2.40;;
72301;SDS011;60235;52.234;5.186;2023-08-08T03:09:22;8.65;;;3.47;;
72301;SDS011;60235;52.234;5.186;2023-08-08T03:11:48;8.43;;;2.42;;
72301;SDS011;60235;52.234;5.186;2023-08-08T03:14:14;8.73;;;2.58;;
72301;SDS011;60235;52.234;5.186;2023-08-08T03:16:40;11.00;;;3.33;;
72301;SDS011;60235;52.234;5.186;2023-08-08T03:19:06;7.63;;;2.17;;
72301;SDS011;60235;52.234;5.186;2023-08-08T03:21:32;8.23;;;2.30;;
72301;SDS011;60235;52.234;5.186;2023-08-08T03:23:58;10.05;;;2.30;;
72301;SDS011;60235;52.234;5.186;2023-08-08T03:26:24;6.40;;;2.05;;
72301;SDS011;60235;52.234;5.186;2023-08-08T03:28:50;13.52;;;3.05;;
72301;SDS011;60235;52.234;5.186;2023-08-08T03:31:18;7.07;;;1.70;;
72301;SDS011;60235;52.234;5.186;2023-08-08T03:33:44;11.40;;;2.35;;
72301;SDS011;60235;52.234;5.186;2023-08-08T03:36:10;7.75;;;1.90;;
72301;SDS011;60235;52.234;5.186;2023-08-08T03:38:36;6.47;;;1.92;;
72301;SDS011;60235;52.234;5.186;2023-08-08T03:41:10;9.68;;;2.30;;
72301;SDS011;60235;52.234;5.186;2023-08-08T03:43:36;7.40;;;2.40;;
72301;SDS011;60235;52.234;5.186;2023-08-08T03:46:02;6.35;;;2.20;;
72301;SDS011;60235;52.234;5.186;2023-08-08T03:48:28;9.88;;;2.08;;
72301;SDS011;60235;52.234;5.186;2023-08-08T03:50:54;6.28;;;1.92;;
72301;SDS011;60235;52.234;5.186;2023-08-08T03:53:20;9.00;;;1.95;;
72301;SDS011;60235;52.234;5.186;2023-08-08T03:55:46;9.10;;;2.05;;
72301;SDS011;60235;52.234;5.186;2023-08-08T03:58:12;9.50;;;2.03;;
72301;SDS011;60235;52.234;5.186;2023-08-08T04:00:38;7.80;;;1.90;;
72301;SDS011;60235;52.234;5.186;2023-08-08T04:03:10;9.63;;;1.90;;
72301;SDS011;60235;52.234;5.186;2023-08-08T04:05:36;6.38;;;1.95;;
72301;SDS011;60235;52.234;5.186;2023-08-08T04:08:02;9.25;;;1.85;;
72301;SDS011;60235;52.234;5.186;2023-08-08T04:10:29;11.68;;;1.88;;
72301;SDS011;60235;52.234;5.186;2023-08-08T04:12:54;10.68;;;2.20;;
72301;SDS011;60235;52.234;5.186;2023-08-08T04:15:20;11.25;;;1.95;;
72301;SDS011;60235;52.234;5.186;2023-08-08T04:17:46;9.70;;;2.35;;
72301;SDS011;60235;52.234;5.186;2023-08-08T04:20:12;10.32;;;1.83;;
72301;SDS011;60235;52.234;5.186;2023-08-08T04:22:39;5.53;;;1.60;;
72301;SDS011;60235;52.234;5.186;2023-08-08T04:25:05;7.18;;;1.80;;
72301;SDS011;60235;52.234;5.186;2023-08-08T04:27:32;6.95;;;2.30;;
72301;SDS011;60235;52.234;5.186;2023-08-08T04:29:58;9.45;;;2.00;;
72301;SDS011;60235;52.234;5.186;2023-08-08T04:32:24;6.95;;;1.80;;
72301;SDS011;60235;52.234;5.186;2023-08-08T04:34:50;5.97;;;1.42;;
72301;SDS011;60235;52.234;5.186;2023-08-08T04:37:16;5.43;;;1.60;;
72301;SDS011;60235;52.234;5.186;2023-08-08T04:39:42;7.70;;;1.73;;
72301;SDS011;60235;52.234;5.186;2023-08-08T04:42:08;6.90;;;1.70;;
72301;SDS011;60235;52.234;5.186;2023-08-08T04:44:34;9.60;;;2.05;;
72301;SDS011;60235;52.234;5.186;2023-08-08T04:47:00;11.25;;;1.70;;
72301;SDS011;60235;52.234;5.186;2023-08-08T04:49:26;7.95;;;1.80;;
72301;SDS011;60235;52.234;5.186;2023-08-08T04:51:53;5.60;;;1.60;;
72301;SDS011;60235;52.234;5.186;2023-08-08T04:54:19;4.80;;;1.40;;
72301;SDS011;60235;52.234;5.186;2023-08-08T04:56:45;11.73;;;2.20;;
72301;SDS011;60235;52.234;5.186;2023-08-08T04:59:11;9.48;;;1.75;;
72301;SDS011;60235;52.234;5.186;2023-08-08T05:01:37;4.43;;;1.35;;
72301;SDS011;60235;52.234;5.186;2023-08-08T05:04:03;8.25;;;1.70;;
72301;SDS011;60235;52.234;5.186;2023-08-08T05:06:30;5.93;;;1.27;;
72301;SDS011;60235;52.234;5.186;2023-08-08T05:08:56;4.28;;;1.25;;
72301;SDS011;60235;52.234;5.186;2023-08-08T05:11:22;7.50;;;1.40;;
72301;SDS011;60235;52.234;5.186;2023-08-08T05:13:48;4.78;;;1.33;;
72301;SDS011;60235;52.234;5.186;2023-08-08T05:16:14;4.07;;;1.15;;
72301;SDS011;60235;52.234;5.186;2023-08-08T05:18:40;5.97;;;1.25;;
72301;SDS011;60235;52.234;5.186;2023-08-08T05:21:09;9.52;;;1.50;;
72301;SDS011;60235;52.234;5.186;2023-08-08T05:23:35;6.75;;;1.60;;
72301;SDS011;60235;52.234;5.186;2023-08-08T05:26:01;6.60;;;1.48;;
72301;SDS011;60235;52.234;5.186;2023-08-08T05:28:28;6.30;;;1.33;;
72301;SDS011;60235;52.234;5.186;2023-08-08T05:30:54;5.55;;;1.20;;
72301;SDS011;60235;52.234;5.186;2023-08-08T05:33:21;9.02;;;1.40;;
72301;SDS011;60235;52.234;5.186;2023-08-08T05:35:47;8.30;;;1.48;;
72301;SDS011;60235;52.234;5.186;2023-08-08T05:38:13;5.97;;;1.40;;
72301;SDS011;60235;52.234;5.186;2023-08-08T05:40:39;6.53;;;1.20;;
72301;SDS011;60235;52.234;5.186;2023-08-08T05:43:05;8.65;;;1.42;;
72301;SDS011;60235;52.234;5.186;2023-08-08T05:45:31;8.13;;;1.60;;
72301;SDS011;60235;52.234;5.186;2023-08-08T05:47:57;7.68;;;1.42;;
72301;SDS011;60235;52.234;5.186;2023-08-08T05:50:25;7.07;;;1.30;;
72301;SDS011;60235;52.234;5.186;2023-08-08T05:52:51;7.20;;;1.35;;
72301;SDS011;60235;52.234;5.186;2023-08-08T05:55:17;7.35;;;1.60;;
72301;SDS011;60235;52.234;5.186;2023-08-08T05:57:43;7.95;;;1.38;;
72301;SDS011;60235;52.234;5.186;2023-08-08T06:00:09;9.88;;;1.30;;
72301;SDS011;60235;52.234;5.186;2023-08-08T06:02:36;5.60;;;1.10;;
72301;SDS011;60235;52.234;5.186;2023-08-08T06:05:02;4.65;;;1.05;;
72301;SDS011;60235;52.234;5.186;2023-08-08T06:07:28;7.75;;;1.73;;
72301;SDS011;60235;52.234;5.186;2023-08-08T06:09:54;6.68;;;1.50;;
72301;SDS011;60235;52.234;5.186;2023-08-08T06:12:20;9.65;;;1.45;;
72301;SDS011;60235;52.234;5.186;2023-08-08T06:14:47;4.13;;;1.25;;
72301;SDS011;60235;52.234;5.186;2023-08-08T06:17:13;6.20;;;1.42;;
72301;SDS011;60235;52.234;5.186;2023-08-08T06:19:39;7.57;;;1.48;;
72301;SDS011;60235;52.234;5.186;2023-08-08T06:22:06;6.32;;;0.90;;
72301;SDS011;60235;52.234;5.186;2023-08-08T06:24:32;7.65;;;1.30;;
72301;SDS011;60235;52.234;5.186;2023-08-08T06:26:58;3.83;;;1.00;;
72301;SDS011;60235;52.234;5.186;2023-08-08T06:29:24;6.90;;;1.00;;
72301;SDS011;60235;52.234;5.186;2023-08-08T06:31:50;8.50;;;1.50;;
72301;SDS011;60235;52.234;5.186;2023-08-08T06:34:16;4.18;;;1.02;;
72301;SDS011;60235;52.234;5.186;2023-08-08T06:36:42;8.18;;;1.33;;
72301;SDS011;60235;52.234;5.186;2023-08-08T06:39:08;6.15;;;1.30;;
72301;SDS011;60235;52.234;5.186;2023-08-08T06:41:36;4.70;;;0.98;;
72301;SDS011;60235;52.234;5.186;2023-08-08T06:44:03;8.40;;;1.50;;
72301;SDS011;60235;52.234;5.186;2023-08-08T06:46:29;4.30;;;1.00;;
72301;SDS011;60235;52.234;5.186;2023-08-08T06:48:55;5.90;;;1.00;;
72301;SDS011;60235;52.234;5.186;2023-08-08T06:51:22;7.18;;;1.13;;
72301;SDS011;60235;52.234;5.186;2023-08-08T06:53:48;5.22;;;1.20;;
72301;SDS011;60235;52.234;5.186;2023-08-08T06:56:14;4.38;;;0.88;;
72301;SDS011;60235;52.234;5.186;2023-08-08T06:58:40;8.25;;;1.13;;
72301;SDS011;60235;52.234;5.186;2023-08-08T07:01:06;6.63;;;1.05;;
72301;SDS011;60235;52.234;5.186;2023-08-08T07:03:32;9.38;;;1.10;;
72301;SDS011;60235;52.234;5.186;2023-08-08T07:05:58;6.50;;;1.20;;
72301;SDS011;60235;52.234;5.186;2023-08-08T07:08:25;5.07;;;1.10;;
72301;SDS011;60235;52.234;5.186;2023-08-08T07:10:51;8.80;;;1.17;;
72301;SDS011;60235;52.234;5.186;2023-08-08T07:13:17;5.65;;;0.88;;
72301;SDS011;60235;52.234;5.186;2023-08-08T07:15:43;9.88;;;1.20;;
72301;SDS011;60235;52.234;5.186;2023-08-08T07:18:09;2.80;;;0.77;;
72301;SDS011;60235;52.234;5.186;2023-08-08T07:20:35;3.75;;;0.80;;
72301;SDS011;60235;52.234;5.186;2023-08-08T07:23:01;6.72;;;0.85;;
72301;SDS011;60235;52.234;5.186;2023-08-08T07:25:27;3.85;;;0.82;;
72301;SDS011;60235;52.234;5.186;2023-08-08T07:27:54;3.00;;;0.60;;
72301;SDS011;60235;52.234;5.186;2023-08-08T07:30:20;4.63;;;0.85;;
72301;SDS011;60235;52.234;5.186;2023-08-08T07:32:46;6.97;;;1.42;;
72301;SDS011;60235;52.234;5.186;2023-08-08T07:35:12;6.25;;;1.25;;
72301;SDS011;60235;52.234;5.186;2023-08-08T07:37:40;5.38;;;1.05;;
72301;SDS011;60235;52.234;5.186;2023-08-08T07:40:15;5.50;;;0.93;;
72301;SDS011;60235;52.234;5.186;2023-08-08T07:42:43;3.80;;;0.75;;
72301;SDS011;60235;52.234;5.186;2023-08-08T07:45:09;8.20;;;1.10;;
72301;SDS011;60235;52.234;5.186;2023-08-08T07:47:35;4.28;;;0.98;;
72301;SDS011;60235;52.234;5.186;2023-08-08T07:50:01;4.50;;;0.63;;
72301;SDS011;60235;52.234;5.186;2023-08-08T07:52:27;2.85;;;1.02;;
72301;SDS011;60235;52.234;5.186;2023-08-08T07:54:53;4.53;;;0.75;;
72301;SDS011;60235;52.234;5.186;2023-08-08T07:57:19;3.08;;;0.70;;
72301;SDS011;60235;52.234;5.186;2023-08-08T07:59:45;7.53;;;0.82;;
72301;SDS011;60235;52.234;5.186;2023-08-08T08:02:11;7.07;;;0.98;;
72301;SDS011;60235;52.234;5.186;2023-08-08T08:04:37;5.90;;;1.00;;
72301;SDS011;60235;52.234;5.186;2023-08-08T08:07:03;5.10;;;0.80;;
72301;SDS011;60235;52.234;5.186;2023-08-08T08:09:29;6.82;;;1.60;;
72301;SDS011;60235;52.234;5.186;2023-08-08T08:11:55;2.17;;;0.52;;
72301;SDS011;60235;52.234;5.186;2023-08-08T08:14:21;4.15;;;0.80;;
72301;SDS011;60235;52.234;5.186;2023-08-08T08:16:47;5.18;;;0.80;;
72301;SDS011;60235;52.234;5.186;2023-08-08T08:19:14;4.68;;;0.77;;
72301;SDS011;60235;52.234;5.186;2023-08-08T08:21:40;6.10;;;0.88;;
72301;SDS011;60235;52.234;5.186;2023-08-08T08:24:06;3.40;;;0.80;;
72301;SDS011;60235;52.234;5.186;2023-08-08T08:26:32;4.82;;;0.70;;
72301;SDS011;60235;52.234;5.186;2023-08-08T08:28:58;3.35;;;0.60;;
72301;SDS011;60235;52.234;5.186;2023-08-08T08:31:24;8.25;;;1.00;;
72301;SDS011;60235;52.234;5.186;2023-08-08T08:33:50;4.80;;;1.00;;
72301;SDS011;60235;52.234;5.186;2023-08-08T08:36:16;3.83;;;0.80;;
72301;SDS011;60235;52.234;5.186;2023-08-08T08:38:42;3.13;;;0.80;;
72301;SDS011;60235;52.234;5.186;2023-08-08T08:41:08;1.85;;;0.55;;
72301;SDS011;60235;52.234;5.186;2023-08-08T08:43:34;4.70;;;0.90;;
72301;SDS011;60235;52.234;5.186;2023-08-08T08:46:01;3.38;;;0.68;;
72301;SDS011;60235;52.234;5.186;2023-08-08T08:48:27;4.38;;;0.88;;
72301;SDS011;60235;52.234;5.186;2023-08-08T08:50:53;5.40;;;0.98;;
72301;SDS011;60235;52.234;5.186;2023-08-08T08:53:19;6.07;;;0.90;;
72301;SDS011;60235;52.234;5.186;2023-08-08T08:55:47;6.25;;;1.10;;
72301;SDS011;60235;52.234;5.186;2023-08-08T08:58:14;6.78;;;0.98;;
72301;SDS011;60235;52.234;5.186;2023-08-08T09:00:44;3.78;;;0.80;;
72301;SDS011;60235;52.234;5.186;2023-08-08T09:03:10;3.90;;;0.80;;
72301;SDS011;60235;52.234;5.186;2023-08-08T09:05:37;4.40;;;0.85;;
72301;SDS011;60235;52.234;5.186;2023-08-08T09:08:05;3.85;;;0.82;;
72301;SDS011;60235;52.234;5.186;2023-08-08T09:10:31;5.90;;;1.10;;
72301;SDS011;60235;52.234;5.186;2023-08-08T09:12:57;6.40;;;1.02;;
72301;SDS011;60235;52.234;5.186;2023-08-08T09:15:23;3.92;;;1.00;;
72301;SDS011;60235;52.234;5.186;2023-08-08T09:17:49;4.82;;;1.17;;
72301;SDS011;60235;52.234;5.186;2023-08-08T09:20:16;6.40;;;1.13;;
72301;SDS011;60235;52.234;5.186;2023-08-08T09:22:42;4.07;;;0.70;;
72301;SDS011;60235;52.234;5.186;2023-08-08T09:25:08;1.73;;;0.68;;
72301;SDS011;60235;52.234;5.186;2023-08-08T09:27:35;6.13;;;1.10;;
72301;SDS011;60235;52.234;5.186;2023-08-08T09:30:01;4.55;;;0.95;;
72301;SDS011;60235;52.234;5.186;2023-08-08T09:32:28;2.53;;;0.60;;
72301;SDS011;60235;52.234;5.186;2023-08-08T09:34:55;5.32;;;0.95;;
72301;SDS011;60235;52.234;5.186;2023-08-08T09:37:21;3.38;;;0.93;;
72301;SDS011;60235;52.234;5.186;2023-08-08T09:39:55;5.28;;;0.98;;
72301;SDS011;60235;52.234;5.186;2023-08-08T09:42:21;2.15;;;0.60;;
72301;SDS011;60235;52.234;5.186;2023-08-08T09:44:47;3.42;;;0.85;;
72301;SDS011;60235;52.234;5.186;2023-08-08T09:47:14;5.68;;;1.20;;
72301;SDS011;60235;52.234;5.186;2023-08-08T09:49:40;4.70;;;1.17;;
72301;SDS011;60235;52.234;5.186;2023-08-08T09:52:07;3.90;;;1.10;;
72301;SDS011;60235;52.234;5.186;2023-08-08T09:54:33;2.63;;;0.68;;
72301;SDS011;60235;52.234;5.186;2023-08-08T09:56:59;3.83;;;0.98;;
72301;SDS011;60235;52.234;5.186;2023-08-08T09:59:25;4.88;;;1.13;;
72301;SDS011;60235;52.234;5.186;2023-08-08T10:01:51;10.40;;;2.75;;
72301;SDS011;60235;52.234;5.186;2023-08-08T10:04:18;6.50;;;1.60;;
72301;SDS011;60235;52.234;5.186;2023-08-08T10:06:44;4.78;;;0.90;;
72301;SDS011;60235;52.234;5.186;2023-08-08T10:09:10;5.53;;;0.80;;
72301;SDS011;60235;52.234;5.186;2023-08-08T10:11:36;3.92;;;0.80;;
72301;SDS011;60235;52.234;5.186;2023-08-08T10:14:02;3.28;;;0.60;;
72301;SDS011;60235;52.234;5.186;2023-08-08T10:16:32;6.00;;;0.80;;
72301;SDS011;60235;52.234;5.186;2023-08-08T10:18:59;2.25;;;0.68;;
72301;SDS011;60235;52.234;5.186;2023-08-08T10:21:26;2.05;;;0.60;;
72301;SDS011;60235;52.234;5.186;2023-08-08T10:24:03;4.88;;;0.73;;
72301;SDS011;60235;52.234;5.186;2023-08-08T10:26:29;2.03;;;0.65;;
72301;SDS011;60235;52.234;5.186;2023-08-08T10:28:56;4.32;;;0.70;;
72301;SDS011;60235;52.234;5.186;2023-08-08T10:31:22;6.20;;;0.90;;
72301;SDS011;60235;52.234;5.186;2023-08-08T10:33:48;5.82;;;0.70;;
72301;SDS011;60235;52.234;5.186;2023-08-08T10:36:14;6.00;;;0.98;;
72301;SDS011;60235;52.234;5.186;2023-08-08T10:38:47;4.03;;;0.73;;
72301;SDS011;60235;52.234;5.186;2023-08-08T10:41:16;2.28;;;0.60;;
72301;SDS011;60235;52.234;5.186;2023-08-08T10:43:49;3.38;;;0.80;;
72301;SDS011;60235;52.234;5.186;2023-08-08T10:46:22;3.90;;;0.88;;
72301;SDS011;60235;52.234;5.186;2023-08-08T10:48:52;3.63;;;0.90;;
72301;SDS011;60235;52.234;5.186;2023-08-08T10:51:18;3.13;;;0.80;;
72301;SDS011;60235;52.234;5.186;2023-08-08T10:53:45;2.85;;;0.90;;
72301;SDS011;60235;52.234;5.186;2023-08-08T10:56:14;4.70;;;0.80;;
72301;SDS011;60235;52.234;5.186;2023-08-08T10:58:40;2.08;;;0.70;;
72301;SDS011;60235;52.234;5.186;2023-08-08T11:01:07;3.30;;;0.70;;
72301;SDS011;60235;52.234;5.186;2023-08-08T11:03:37;3.25;;;0.88;;
72301;SDS011;60235;52.234;5.186;2023-08-08T11:06:04;6.20;;;0.80;;
72301;SDS011;60235;52.234;5.186;2023-08-08T11:08:31;3.63;;;0.88;;
72301;SDS011;60235;52.234;5.186;2023-08-08T11:10:58;7.85;;;1.00;;
72301;SDS011;60235;52.234;5.186;2023-08-08T11:13:24;5.53;;;1.13;;
72301;SDS011;60235;52.234;5.186;2023-08-08T11:15:50;5.18;;;1.00;;
72301;SDS011;60235;52.234;5.186;2023-08-08T11:18:16;4.32;;;0.80;;
72301;SDS011;60235;52.234;5.186;2023-08-08T11:20:42;4.70;;;1.00;;
72301;SDS011;60235;52.234;5.186;2023-08-08T11:23:09;3.38;;;0.80;;
72301;SDS011;60235;52.234;5.186;2023-08-08T11:25:39;4.15;;;0.80;;
72301;SDS011;60235;52.234;5.186;2023-08-08T11:30:33;3.33;;;0.90;;
72301;SDS011;60235;52.234;5.186;2023-08-08T11:33:00;4.25;;;0.73;;
72301;SDS011;60235;52.234;5.186;2023-08-08T11:35:26;5.88;;;0.90;;
72301;SDS011;60235;52.234;5.186;2023-08-08T11:37:53;2.30;;;0.60;;
72301;SDS011;60235;52.234;5.186;2023-08-08T11:40:20;3.95;;;0.95;;
72301;SDS011;60235;52.234;5.186;2023-08-08T11:42:46;2.95;;;0.82;;
72301;SDS011;60235;52.234;5.186;2023-08-08T11:45:15;4.38;;;1.00;;
72301;SDS011;60235;52.234;5.186;2023-08-08T11:47:41;3.42;;;0.88;;
72301;SDS011;60235;52.234;5.186;2023-08-08T11:50:08;3.67;;;0.93;;
72301;SDS011;60235;52.234;5.186;2023-08-08T11:52:35;3.30;;;0.82;;
72301;SDS011;60235;52.234;5.186;2023-08-08T11:55:01;4.22;;;0.73;;
72301;SDS011;60235;52.234;5.186;2023-08-08T11:57:27;3.03;;;1.00;;
72301;SDS011;60235;52.234;5.186;2023-08-08T11:59:54;4.22;;;0.75;;
72301;SDS011;60235;52.234;5.186;2023-08-08T12:02:20;4.20;;;1.05;;
72301;SDS011;60235;52.234;5.186;2023-08-08T12:04:46;4.43;;;0.70;;
72301;SDS011;60235;52.234;5.186;2023-08-08T12:07:12;1.80;;;0.68;;
72301;SDS011;60235;52.234;5.186;2023-08-08T12:09:38;3.92;;;0.80;;
72301;SDS011;60235;52.234;5.186;2023-08-08T12:12:05;4.40;;;0.88;;
72301;SDS011;60235;52.234;5.186;2023-08-08T12:14:38;6.78;;;1.08;;
72301;SDS011;60235;52.234;5.186;2023-08-08T12:17:04;3.78;;;0.70;;
72301;SDS011;60235;52.234;5.186;2023-08-08T12:19:30;5.13;;;0.80;;
72301;SDS011;60235;52.234;5.186;2023-08-08T12:21:56;4.38;;;0.98;;
72301;SDS011;60235;52.234;5.186;2023-08-08T12:24:22;3.83;;;0.80;;
72301;SDS011;60235;52.234;5.186;2023-08-08T12:26:48;2.35;;;0.60;;
72301;SDS011;60235;52.234;5.186;2023-08-08T12:29:14;3.25;;;0.82;;
72301;SDS011;60235;52.234;5.186;2023-08-08T12:31:40;2.65;;;0.70;;
72301;SDS011;60235;52.234;5.186;2023-08-08T12:34:06;4.45;;;0.85;;
72301;SDS011;60235;52.234;5.186;2023-08-08T12:36:33;3.60;;;0.80;;
72301;SDS011;60235;52.234;5.186;2023-08-08T12:38:58;6.32;;;1.13;;
72301;SDS011;60235;52.234;5.186;2023-08-08T12:41:25;5.22;;;0.90;;
72301;SDS011;60235;52.234;5.186;2023-08-08T12:43:51;3.85;;;0.70;;
72301;SDS011;60235;52.234;5.186;2023-08-08T12:46:17;5.43;;;0.80;;
72301;SDS011;60235;52.234;5.186;2023-08-08T12:48:43;2.50;;;0.80;;
72301;SDS011;60235;52.234;5.186;2023-08-08T12:51:09;5.90;;;0.95;;
72301;SDS011;60235;52.234;5.186;2023-08-08T12:53:36;3.97;;;0.80;;
72301;SDS011;60235;52.234;5.186;2023-08-08T12:56:02;4.88;;;1.15;;
72301;SDS011;60235;52.234;5.186;2023-08-08T12:58:28;2.85;;;0.60;;
72301;SDS011;60235;52.234;5.186;2023-08-08T13:00:54;5.47;;;0.93;;
72301;SDS011;60235;52.234;5.186;2023-08-08T13:03:20;2.63;;;0.88;;
72301;SDS011;60235;52.234;5.186;2023-08-08T13:05:46;3.90;;;0.80;;
72301;SDS011;60235;52.234;5.186;2023-08-08T13:08:12;7.88;;;1.20;;
72301;SDS011;60235;52.234;5.186;2023-08-08T13:10:39;3.85;;;0.80;;
72301;SDS011;60235;52.234;5.186;2023-08-08T13:13:05;3.10;;;0.80;;
72301;SDS011;60235;52.234;5.186;2023-08-08T13:15:31;4.25;;;0.90;;
72301;SDS011;60235;52.234;5.186;2023-08-08T13:17:57;3.42;;;0.80;;
72301;SDS011;60235;52.234;5.186;2023-08-08T13:20:25;5.53;;;0.90;;
72301;SDS011;60235;52.234;5.186;2023-08-08T13:22:51;3.28;;;0.80;;
72301;SDS011;60235;52.234;5.186;2023-08-08T13:25:17;5.75;;;0.82;;
72301;SDS011;60235;52.234;5.186;2023-08-08T13:27:46;4.55;;;0.90;;
72301;SDS011;60235;52.234;5.186;2023-08-08T13:30:13;4.40;;;0.88;;
72301;SDS011;60235;52.234;5.186;2023-08-08T13:32:41;3.17;;;0.90;;
72301;SDS011;60235;52.234;5.186;2023-08-08T13:35:07;5.97;;;0.93;;
72301;SDS011;60235;52.234;5.186;2023-08-08T13:37:33;6.35;;;1.02;;
72301;SDS011;60235;52.234;5.186;2023-08-08T13:39:59;4.10;;;0.98;;
72301;SDS011;60235;52.234;5.186;2023-08-08T13:42:25;3.33;;;0.82;;
72301;SDS011;60235;52.234;5.186;2023-08-08T13:44:51;4.45;;;1.00;;
72301;SDS011;60235;52.234;5.186;2023-08-08T13:47:17;4.32;;;1.00;;
72301;SDS011;60235;52.234;5.186;2023-08-08T13:49:43;3.90;;;1.02;;
72301;SDS011;60235;52.234;5.186;2023-08-08T13:52:09;4.00;;;0.82;;
72301;SDS011;60235;52.234;5.186;2023-08-08T13:54:35;5.07;;;1.00;;
72301;SDS011;60235;52.234;5.186;2023-08-08T13:57:01;7.80;;;0.85;;
72301;SDS011;60235;52.234;5.186;2023-08-08T13:59:27;6.22;;;1.45;;
72301;SDS011;60235;52.234;5.186;2023-08-08T14:01:53;5.00;;;1.00;;
72301;SDS011;60235;52.234;5.186;2023-08-08T14:04:19;3.97;;;1.00;;
72301;SDS011;60235;52.234;5.186;2023-08-08T14:06:45;3.83;;;0.90;;
72301;SDS011;60235;52.234;5.186;2023-08-08T14:09:11;5.82;;;0.93;;
72301;SDS011;60235;52.234;5.186;2023-08-08T14:11:37;5.13;;;1.13;;
72301;SDS011;60235;52.234;5.186;2023-08-08T14:14:03;5.20;;;1.45;;
72301;SDS011;60235;52.234;5.186;2023-08-08T14:16:29;5.78;;;0.90;;
72301;SDS011;60235;52.234;5.186;2023-08-08T14:18:55;3.78;;;1.00;;
72301;SDS011;60235;52.234;5.186;2023-08-08T14:21:21;6.40;;;1.42;;
72301;SDS011;60235;52.234;5.186;2023-08-08T14:23:47;4.82;;;1.08;;
72301;SDS011;60235;52.234;5.186;2023-08-08T14:26:13;6.68;;;1.70;;
72301;SDS011;60235;52.234;5.186;2023-08-08T14:28:39;3.83;;;1.10;;
72301;SDS011;60235;52.234;5.186;2023-08-08T14:31:05;5.38;;;1.10;;
72301;SDS011;60235;52.234;5.186;2023-08-08T14:33:32;4.47;;;1.00;;
72301;SDS011;60235;52.234;5.186;2023-08-08T14:35:58;7.45;;;1.05;;
72301;SDS011;60235;52.234;5.186;2023-08-08T14:38:24;4.78;;;1.30;;
72301;SDS011;60235;52.234;5.186;2023-08-08T14:40:50;3.92;;;1.10;;
72301;SDS011;60235;52.234;5.186;2023-08-08T14:43:18;4.50;;;0.90;;
72301;SDS011;60235;52.234;5.186;2023-08-08T14:45:44;5.25;;;1.30;;
72301;SDS011;60235;52.234;5.186;2023-08-08T14:48:10;4.93;;;1.08;;